createdAt,value
2018-06-27T00:01:05.496Z,99117.47
2018-06-27T00:03:34.181Z,99121.48
2018-06-27T00:06:02.953Z,99117.39
2018-06-27T00:08:31.582Z,99125.88
2018-06-27T00:11:00.248Z,99126.48
2018-06-27T00:13:28.965Z,99125.15
2018-06-27T00:15:57.577Z,99123.42
2018-06-27T00:18:26.185Z,99120.98
2018-06-27T00:20:55.113Z,99112.34
2018-06-27T00:23:23.790Z,99111.92
2018-06-27T00:25:52.449Z,99114.31
2018-06-27T00:28:21.225Z,99116.76
2018-06-27T00:30:49.919Z,99117.67
2018-06-27T00:33:18.680Z,99112.75
2018-06-27T00:35:47.502Z,99113.48
2018-06-27T00:38:17.877Z,99107.02
2018-06-27T00:40:46.921Z,99109.79
2018-06-27T00:43:16.529Z,99106.52
2018-06-27T00:45:45.419Z,99113.16
2018-06-27T00:48:14.168Z,99104.78
2018-06-27T00:50:42.747Z,99103.52
2018-06-27T00:53:11.393Z,99107.72
2018-06-27T00:55:40.078Z,99101.28
2018-06-27T00:58:08.748Z,99098.43
2018-06-27T01:00:37.421Z,99100.99
2018-06-27T01:03:06.200Z,99095.67
2018-06-27T01:05:34.993Z,99096.45
2018-06-27T01:08:03.822Z,99093.16
2018-06-27T01:10:32.390Z,99093.89
2018-06-27T01:13:01.039Z,99091.04
2018-06-27T01:15:29.637Z,99094.21
2018-06-27T01:17:58.696Z,99090.84
2018-06-27T01:20:27.823Z,99088.19
2018-06-27T01:22:56.490Z,99084.70
2018-06-27T01:25:25.249Z,99087.14
2018-06-27T01:27:53.858Z,99086.34
2018-06-27T01:30:22.489Z,99086.14
2018-06-27T01:32:51.428Z,99084.38
2018-06-27T01:35:20.112Z,99085.30
2018-06-27T01:37:49.058Z,99084.29
2018-06-27T01:40:17.650Z,99088.59
2018-06-27T01:42:46.257Z,99087.55
2018-06-27T01:45:14.901Z,99082.84
2018-06-27T01:47:43.553Z,99085.83
2018-06-27T01:50:12.339Z,99079.27
2018-06-27T01:52:41.018Z,99080.30
2018-06-27T01:55:09.555Z,99078.45
2018-06-27T01:57:38.271Z,99081.63
2018-06-27T02:00:08.183Z,99082.34
2018-06-27T02:02:37.898Z,99085.83
2018-06-27T02:05:06.494Z,99083.17
2018-06-27T02:07:35.209Z,99081.84
2018-06-27T02:10:03.853Z,99090.55
2018-06-27T02:12:32.469Z,99086.34
2018-06-27T02:15:01.150Z,99089.89
2018-06-27T02:17:29.845Z,99095.39
2018-06-27T02:19:58.540Z,99098.36
2018-06-27T02:22:27.272Z,99103.16
2018-06-27T02:24:55.876Z,99097.93
2018-06-27T02:27:24.830Z,99100.28
2018-06-27T02:29:53.644Z,99095.88
2018-06-27T02:32:22.447Z,99097.50
2018-06-27T02:34:51.239Z,99097.51
2018-06-27T02:37:20.124Z,99093.19
2018-06-27T02:39:49.137Z,99105.05
2018-06-27T02:42:17.826Z,99104.25
2018-06-27T02:44:46.471Z,99107.19
2018-06-27T02:47:15.189Z,99108.72
2018-06-27T02:49:43.890Z,99107.52
2018-06-27T02:52:12.638Z,99108.87
2018-06-27T02:54:41.469Z,99111.35
2018-06-27T02:57:10.177Z,99112.69
2018-06-27T02:59:38.783Z,99112.55
2018-06-27T03:02:07.429Z,99112.75
2018-06-27T03:04:36.163Z,99113.80
2018-06-27T03:07:04.850Z,99114.56
2018-06-27T03:09:33.629Z,99123.81
2018-06-27T03:12:02.252Z,99116.22
2018-06-27T03:14:30.950Z,99116.40
2018-06-27T03:16:59.593Z,99119.22
2018-06-27T03:19:28.483Z,99122.99
2018-06-27T03:21:57.261Z,99121.39
2018-06-27T03:24:25.932Z,99123.25
2018-06-27T03:26:54.659Z,99123.67
2018-06-27T03:29:23.344Z,99122.95
2018-06-27T03:31:52.000Z,99126.03
2018-06-27T03:34:20.760Z,99121.95
2018-06-27T03:36:49.428Z,99127.52
2018-06-27T03:39:18.085Z,99120.02
2018-06-27T03:41:46.788Z,99121.14
2018-06-27T03:44:15.476Z,99118.82
2018-06-27T03:46:44.214Z,99120.66
2018-06-27T03:49:12.847Z,99118.91
2018-06-27T03:51:41.500Z,99125.45
2018-06-27T03:54:10.369Z,99128.02
2018-06-27T03:56:38.953Z,99126.95
2018-06-27T03:59:07.779Z,99125.86
2018-06-27T04:01:36.648Z,99127.19
2018-06-27T04:04:05.651Z,99131.27
2018-06-27T04:06:34.409Z,99127.78
2018-06-27T04:09:03.237Z,99131.59
2018-06-27T04:11:31.897Z,99130.89
2018-06-27T04:14:00.612Z,99131.94
2018-06-27T04:16:29.353Z,99133.28
2018-06-27T04:18:58.262Z,99125.45
2018-06-27T04:21:26.981Z,99120.66
2018-06-27T04:23:55.609Z,99125.15
2018-06-27T04:26:24.353Z,99121.84
2018-06-27T04:28:53.057Z,99120.71
2018-06-27T04:31:21.830Z,99125.34
2018-06-27T04:33:50.527Z,99122.73
2018-06-27T04:36:19.164Z,99126.27
2018-06-27T04:38:47.889Z,99132.73
2018-06-27T04:41:16.620Z,99127.31
2018-06-27T04:43:45.280Z,99134.99
2018-06-27T04:46:14.005Z,99128.73
2018-06-27T04:48:42.672Z,99136.12
2018-06-27T04:51:11.423Z,99139.28
2018-06-27T04:53:40.101Z,99138.12
2018-06-27T04:56:08.936Z,99141.78
2018-06-27T04:58:37.545Z,99138.39
2018-06-27T05:01:06.125Z,99138.29
2018-06-27T05:03:34.859Z,99140.15
2018-06-27T05:06:03.485Z,99140.05
2018-06-27T05:08:33.141Z,99137.62
2018-06-27T05:11:01.692Z,99136.73
2018-06-27T05:13:30.294Z,99137.22
2018-06-27T05:15:59.093Z,99152.14
2018-06-27T05:18:28.242Z,99135.70
2018-06-27T05:20:56.798Z,99134.50
2018-06-27T05:23:25.444Z,99137.80
2018-06-27T05:25:54.124Z,99133.98
2018-06-27T05:28:22.660Z,99132.28
2018-06-27T05:30:51.905Z,99135.95
2018-06-27T05:33:21.039Z,99136.14
2018-06-27T05:35:49.738Z,99137.22
2018-06-27T05:38:18.294Z,99135.58
2018-06-27T05:40:46.924Z,99135.94
2018-06-27T05:43:15.485Z,99137.79
2018-06-27T05:45:44.041Z,99141.44
2018-06-27T05:48:12.770Z,99143.84
2018-06-27T05:50:41.397Z,99141.76
2018-06-27T05:53:10.022Z,99141.48
2018-06-27T05:55:38.605Z,99141.80
2018-06-27T05:58:07.285Z,99145.50
2018-06-27T06:00:35.890Z,99150.67
2018-06-27T06:03:04.502Z,99145.66
2018-06-27T06:05:33.165Z,99155.06
2018-06-27T06:08:01.787Z,99153.03
2018-06-27T06:10:30.396Z,99157.09
2018-06-27T06:12:59.136Z,99154.20
2018-06-27T06:15:27.729Z,99157.45
2018-06-27T06:17:56.277Z,99156.56
2018-06-27T06:20:24.901Z,99142.67
2018-06-27T06:22:53.452Z,99153.53
2018-06-27T06:25:22.103Z,99148.08
2018-06-27T06:27:50.661Z,99151.00
2018-06-27T06:30:19.370Z,99155.59
2018-06-27T06:32:48.882Z,99155.31
2018-06-27T06:35:17.568Z,99156.58
2018-06-27T06:37:46.143Z,99165.20
2018-06-27T06:40:14.790Z,99158.13
2018-06-27T06:42:43.413Z,99159.72
2018-06-27T06:45:11.998Z,99160.20
2018-06-27T06:47:40.609Z,99160.44
2018-06-27T06:50:09.258Z,99164.14
2018-06-27T06:52:37.852Z,99157.01
2018-06-27T06:55:06.802Z,99164.73
2018-06-27T06:57:35.553Z,99165.69
2018-06-27T07:00:04.161Z,99165.75
2018-06-27T07:02:32.803Z,99163.93
2018-06-27T07:05:01.456Z,99164.22
2018-06-27T07:07:30.017Z,99166.61
2018-06-27T07:09:58.574Z,99164.97
2018-06-27T07:12:27.144Z,99172.92
2018-06-27T07:14:55.729Z,99165.95
2018-06-27T07:17:24.352Z,99166.53
2018-06-27T07:19:53.006Z,99167.19
2018-06-27T07:22:21.585Z,99164.86
2018-06-27T07:24:50.182Z,99168.80
2018-06-27T07:27:18.761Z,99173.95
2018-06-27T07:29:47.307Z,99164.28
2018-06-27T07:32:15.922Z,99164.86
2018-06-27T07:34:44.816Z,99175.30
2018-06-27T07:37:13.401Z,99171.70
2018-06-27T07:39:41.963Z,99171.63
2018-06-27T07:42:10.605Z,99178.74
2018-06-27T07:44:39.423Z,99169.07
2018-06-27T07:47:08.292Z,99167.94
2018-06-27T07:49:36.897Z,99165.55
2018-06-27T07:52:05.772Z,99161.85
2018-06-27T07:54:41.358Z,99163.11
2018-06-27T07:57:12.450Z,99161.84
2018-06-27T07:59:41.234Z,99165.77
2018-06-27T08:02:09.928Z,99166.16
2018-06-27T08:04:38.548Z,99162.50
2018-06-27T08:07:07.234Z,99168.10
2018-06-27T08:09:35.924Z,99167.70
2018-06-27T08:12:04.599Z,99160.94
2018-06-27T08:14:39.719Z,99156.55
2018-06-27T08:17:08.315Z,99162.37
2018-06-27T08:19:36.946Z,99163.04
2018-06-27T08:22:06.103Z,99161.16
2018-06-27T08:24:34.953Z,99173.38
2018-06-27T08:27:03.545Z,99168.98
2018-06-27T08:29:32.121Z,99166.03
2018-06-27T08:34:28.277Z,99170.41
2018-06-27T08:36:56.976Z,99165.88
2018-06-27T08:39:25.545Z,99167.61
2018-06-27T08:41:54.225Z,99158.03
2018-06-27T08:44:22.990Z,99166.75
2018-06-27T08:46:51.719Z,99163.61
2018-06-27T08:49:20.359Z,99162.19
2018-06-27T08:51:48.976Z,99161.70
2018-06-27T08:54:17.598Z,99159.12
2018-06-27T08:56:46.193Z,99161.45
2018-06-27T08:59:14.850Z,99159.49
2018-06-27T09:01:43.410Z,99159.20
2018-06-27T09:04:12.107Z,99153.66
2018-06-27T09:06:40.783Z,99158.80
2018-06-27T09:09:11.465Z,99155.95
2018-06-27T09:11:40.302Z,99145.53
2018-06-27T09:14:09.106Z,99149.63
2018-06-27T09:16:37.666Z,99156.55
2018-06-27T09:19:06.885Z,99150.38
2018-06-27T09:21:35.779Z,99154.66
2018-06-27T09:24:04.539Z,99142.89
2018-06-27T09:26:33.253Z,99150.61
2018-06-27T09:29:01.873Z,99154.01
2018-06-27T09:31:30.520Z,99152.70
2018-06-27T09:33:59.348Z,99153.82
2018-06-27T09:36:28.195Z,99150.45
2018-06-27T09:38:57.814Z,99157.23
2018-06-27T09:41:26.487Z,99151.67
2018-06-27T09:43:55.357Z,99157.77
2018-06-27T09:46:24.168Z,99148.88
2018-06-27T09:48:52.988Z,99141.51
2018-06-27T09:51:21.735Z,99147.33
2018-06-27T09:53:50.479Z,99148.80
2018-06-27T09:56:19.042Z,99153.36
2018-06-27T09:58:47.796Z,99147.37
2018-06-27T10:01:16.455Z,99146.06
2018-06-27T10:03:45.521Z,99146.45
2018-06-27T10:06:14.090Z,99138.16
2018-06-27T10:08:42.740Z,99138.42
2018-06-27T10:11:11.294Z,99146.38
2018-06-27T10:13:40.012Z,99142.39
2018-06-27T10:16:08.625Z,99138.48
2018-06-27T10:18:37.378Z,99143.77
2018-06-27T10:21:06.125Z,99140.31
2018-06-27T10:23:34.963Z,99143.52
2018-06-27T10:26:03.573Z,99143.44
2018-06-27T10:28:34.379Z,99138.44
2018-06-27T10:31:02.965Z,99152.67
2018-06-27T10:33:31.620Z,99140.95
2018-06-27T10:36:00.439Z,99139.15
2018-06-27T10:38:29.193Z,99150.00
2018-06-27T10:40:57.894Z,99147.95
2018-06-27T10:43:26.587Z,99150.01
2018-06-27T10:45:55.287Z,99139.66
2018-06-27T10:48:24.384Z,99149.87
2018-06-27T10:50:53.029Z,99158.06
2018-06-27T10:53:21.569Z,99154.97
2018-06-27T10:55:50.285Z,99150.47
2018-06-27T10:58:18.931Z,99148.90
2018-06-27T11:00:47.590Z,99136.80
2018-06-27T11:03:16.149Z,99149.24
2018-06-27T11:05:44.855Z,99146.96
2018-06-27T11:08:13.580Z,99136.55
2018-06-27T11:10:42.905Z,99135.27
2018-06-27T11:13:11.601Z,99134.38
2018-06-27T11:15:40.240Z,99131.80
2018-06-27T11:18:08.869Z,99133.91
2018-06-27T11:20:37.582Z,99130.95
2018-06-27T11:23:06.181Z,99142.23
2018-06-27T11:25:34.721Z,99129.00
2018-06-27T11:28:03.444Z,99138.58
2018-06-27T11:30:32.057Z,99128.31
2018-06-27T11:33:00.700Z,99131.03
2018-06-27T11:35:29.465Z,99124.59
2018-06-27T11:37:58.129Z,99126.22
2018-06-27T11:40:26.851Z,99111.08
2018-06-27T11:42:55.645Z,99124.31
2018-06-27T11:45:24.435Z,99125.63
2018-06-27T11:47:53.053Z,99113.96
2018-06-27T11:50:21.990Z,99124.05
2018-06-27T11:52:50.637Z,99116.20
2018-06-27T11:55:19.845Z,99113.50
2018-06-27T11:57:48.415Z,99117.27
2018-06-27T12:00:17.370Z,99114.53
2018-06-27T12:02:46.238Z,99104.98
2018-06-27T12:05:15.150Z,99108.28
2018-06-27T12:07:44.039Z,99104.25
2018-06-27T12:10:12.822Z,99102.66
2018-06-27T12:12:41.673Z,99100.50
2018-06-27T12:15:10.416Z,99091.86
2018-06-27T12:17:39.393Z,99097.55
2018-06-27T12:20:08.199Z,99105.57
2018-06-27T12:22:36.842Z,99099.42
2018-06-27T12:25:05.585Z,99099.42
2018-06-27T12:27:34.798Z,99108.47
2018-06-27T12:30:03.842Z,99103.38
2018-06-27T12:32:32.849Z,99097.25
2018-06-27T12:35:01.825Z,99088.02
2018-06-27T12:37:30.509Z,99088.69
2018-06-27T12:39:59.510Z,99090.41
2018-06-27T12:42:28.474Z,99086.95
2018-06-27T12:44:57.394Z,99087.47
2018-06-27T12:47:26.260Z,99075.69
2018-06-27T12:49:55.093Z,99079.83
2018-06-27T12:52:23.829Z,99077.38
2018-06-27T12:54:56.736Z,99072.88
2018-06-27T12:57:25.833Z,99081.14
2018-06-27T12:59:54.723Z,99076.75
2018-06-27T13:02:23.612Z,99068.80
2018-06-27T13:04:52.414Z,99072.06
2018-06-27T13:07:21.437Z,99069.88
2018-06-27T13:09:50.183Z,99078.71
2018-06-27T13:12:18.960Z,99073.73
2018-06-27T13:14:47.617Z,99079.45
2018-06-27T13:17:16.253Z,99070.63
2018-06-27T13:19:44.950Z,99067.58
2018-06-27T13:22:13.654Z,99067.87
2018-06-27T13:24:42.452Z,99060.80
2018-06-27T13:27:11.224Z,99048.73
2018-06-27T13:29:39.965Z,99052.61
2018-06-27T13:32:08.733Z,99047.49
2018-06-27T13:34:37.332Z,99050.16
2018-06-27T13:37:06.324Z,99044.59
2018-06-27T13:39:35.021Z,99044.84
2018-06-27T13:42:03.713Z,99045.27
2018-06-27T13:44:33.598Z,99044.53
2018-06-27T13:47:02.674Z,99039.25
2018-06-27T13:49:31.442Z,99028.64
2018-06-27T13:52:00.186Z,99034.43
2018-06-27T13:54:29.529Z,99030.86
2018-06-27T13:56:59.394Z,99032.20
2018-06-27T13:59:28.203Z,99030.53
2018-06-27T14:01:56.845Z,99035.06
2018-06-27T14:04:25.684Z,99037.11
2018-06-27T14:06:55.447Z,99037.29
2018-06-27T14:09:24.157Z,99038.11
2018-06-27T14:11:52.939Z,99031.58
2018-06-27T14:14:21.590Z,99038.33
2018-06-27T14:16:50.593Z,99024.48
2018-06-27T14:19:19.241Z,99019.77
2018-06-27T14:21:48.089Z,99026.77
2018-06-27T14:24:16.799Z,99027.16
2018-06-27T14:26:45.477Z,99027.55
2018-06-27T14:29:14.119Z,99023.44
2018-06-27T14:31:42.871Z,99025.66
2018-06-27T14:34:11.518Z,99025.08
2018-06-27T14:36:40.231Z,99023.50
2018-06-27T14:39:10.193Z,99024.30
2018-06-27T14:41:39.312Z,99021.75
2018-06-27T14:44:08.091Z,99024.64
2018-06-27T14:46:37.689Z,99026.13
2018-06-27T14:49:06.452Z,99026.61
2018-06-27T14:51:35.653Z,99028.08
2018-06-27T14:54:04.442Z,99030.66
2018-06-27T14:56:33.266Z,99027.36
2018-06-27T14:59:01.933Z,99029.36
2018-06-27T15:01:30.713Z,99024.45
2018-06-27T15:03:59.622Z,99027.90
2018-06-27T15:06:28.358Z,99024.77
2018-06-27T15:08:57.109Z,99020.05
2018-06-27T15:11:26.073Z,99019.17
2018-06-27T15:13:54.786Z,99016.28
2018-06-27T15:16:23.568Z,99014.86
2018-06-27T15:18:52.226Z,99014.50
2018-06-27T15:21:20.990Z,99011.39
2018-06-27T15:23:49.711Z,99011.75
2018-06-27T15:26:18.434Z,98999.58
2018-06-27T15:28:47.221Z,99007.30
2018-06-27T15:31:15.891Z,99001.61
2018-06-27T15:33:44.621Z,98994.09
2018-06-27T15:36:13.381Z,98992.72
2018-06-27T15:38:42.351Z,98992.81
2018-06-27T15:41:11.046Z,98997.20
2018-06-27T15:43:39.720Z,99000.34
2018-06-27T15:46:08.528Z,99000.20
2018-06-27T15:48:37.365Z,99000.62
2018-06-27T15:51:06.173Z,98999.31
2018-06-27T15:53:34.838Z,99000.98
2018-06-27T15:56:03.645Z,98999.33
2018-06-27T15:58:32.382Z,99008.97
2018-06-27T16:01:01.108Z,99007.02
2018-06-27T16:03:29.733Z,99009.56
2018-06-27T16:05:58.403Z,99001.16
2018-06-27T16:08:27.246Z,99002.84
2018-06-27T16:10:55.941Z,98997.30
2018-06-27T16:13:24.676Z,98999.89
2018-06-27T16:15:53.328Z,99002.93
2018-06-27T16:18:22.009Z,99000.41
2018-06-27T16:20:50.680Z,99005.97
2018-06-27T16:23:19.491Z,98994.34
2018-06-27T16:25:48.217Z,98989.38
2018-06-27T16:28:16.893Z,98995.23
2018-06-27T16:30:45.613Z,98993.03
2018-06-27T16:33:14.345Z,98990.98
2018-06-27T16:35:43.380Z,99003.65
2018-06-27T16:38:12.308Z,99002.58
2018-06-27T16:40:41.365Z,99006.97
2018-06-27T16:43:10.074Z,99011.48
2018-06-27T16:45:38.893Z,99017.02
2018-06-27T16:48:07.585Z,99013.24
2018-06-27T16:50:37.348Z,99022.28
2018-06-27T16:53:06.429Z,99015.80
2018-06-27T16:55:35.270Z,99020.27
2018-06-27T16:58:04.479Z,99013.91
2018-06-27T17:00:33.165Z,99012.27
2018-06-27T17:03:02.102Z,99011.71
2018-06-27T17:05:30.926Z,99009.89
2018-06-27T17:07:59.730Z,99017.41
2018-06-27T17:10:29.065Z,99013.27
2018-06-27T17:12:57.912Z,99006.13
2018-06-27T17:15:28.413Z,99013.06
2018-06-27T17:17:57.149Z,99020.91
2018-06-27T17:20:25.909Z,99016.94
2018-06-27T17:22:54.785Z,99013.17
2018-06-27T17:25:23.490Z,99012.03
2018-06-27T17:27:52.337Z,99009.20
2018-06-27T17:30:21.377Z,99005.31
2018-06-27T17:32:50.157Z,99003.42
2018-06-27T17:35:19.363Z,99009.38
2018-06-27T17:37:50.608Z,99008.64
2018-06-27T17:40:20.398Z,99003.67
2018-06-27T17:42:49.138Z,99012.86
2018-06-27T17:45:17.976Z,99009.51
2018-06-27T17:47:47.540Z,99012.65
2018-06-27T17:50:17.160Z,99015.11
2018-06-27T17:52:47.020Z,99017.16
2018-06-27T17:55:16.774Z,99018.09
2018-06-27T17:57:46.437Z,99020.22
2018-06-27T18:00:16.043Z,99008.37
2018-06-27T18:02:45.679Z,99018.05
2018-06-27T18:05:15.184Z,99010.75
2018-06-27T18:07:44.717Z,99012.28
2018-06-27T18:10:14.198Z,99005.16
2018-06-27T18:12:44.697Z,99011.78
2018-06-27T18:15:14.326Z,99014.92
2018-06-27T18:17:43.858Z,99012.54
2018-06-27T18:20:13.527Z,99022.56
2018-06-27T18:22:43.105Z,99015.84
2018-06-27T18:25:15.045Z,99022.27
2018-06-27T18:27:45.477Z,99022.75
2018-06-27T18:30:15.283Z,99026.71
2018-06-27T18:32:44.923Z,99019.29
2018-06-27T18:35:14.862Z,99026.11
2018-06-27T18:37:44.266Z,99016.27
2018-06-27T18:40:13.791Z,99022.19
2018-06-27T18:42:43.361Z,99019.66
2018-06-27T18:45:13.076Z,99021.41
2018-06-27T18:47:42.498Z,99017.87
2018-06-27T18:50:12.074Z,99023.80
2018-06-27T18:52:41.628Z,99025.00
2018-06-27T18:57:39.953Z,99031.17
2018-06-27T19:00:10.840Z,99023.86
2018-06-27T19:02:40.518Z,99027.80
2018-06-27T19:05:10.125Z,99028.05
2018-06-27T19:07:39.846Z,99028.03
2018-06-27T19:10:09.354Z,99026.48
2018-06-27T19:12:38.936Z,99027.55
2018-06-27T19:15:08.545Z,99026.91
2018-06-27T19:17:38.222Z,99034.98
2018-06-27T19:20:07.712Z,99034.80
2018-06-27T19:22:37.682Z,99033.05
2018-06-27T19:25:07.326Z,99041.30
2018-06-27T19:27:37.030Z,99036.80
2018-06-27T19:30:07.133Z,99043.63
2018-06-27T19:32:36.708Z,99046.30
2018-06-27T19:35:06.714Z,99043.88
2018-06-27T19:37:36.225Z,98845.34
2018-06-27T19:40:06.163Z,99044.55
2018-06-27T19:42:35.558Z,99048.02
2018-06-27T19:45:05.661Z,99050.73
2018-06-27T19:47:35.230Z,99054.91
2018-06-27T19:50:05.730Z,99056.70
2018-06-27T19:52:35.218Z,99058.90
2018-06-27T19:55:04.955Z,99066.27
2018-06-27T19:57:35.129Z,99066.95
2018-06-27T20:00:04.938Z,99067.68
2018-06-27T20:02:34.405Z,99063.98
2018-06-27T20:05:03.811Z,99074.10
2018-06-27T20:07:33.253Z,99072.92
2018-06-27T20:10:03.925Z,99072.91
2018-06-27T20:12:33.558Z,99073.28
2018-06-27T20:15:03.323Z,99080.20
2018-06-27T20:17:33.102Z,99083.70
2018-06-27T20:20:09.365Z,99075.70
2018-06-27T20:22:44.158Z,99085.48
2018-06-27T20:25:19.057Z,99078.27
2018-06-27T20:27:54.015Z,99074.73
2018-06-27T20:30:28.865Z,99078.16
2018-06-27T20:33:03.936Z,99079.40
2018-06-27T20:35:38.780Z,99074.45
2018-06-27T20:38:07.609Z,99075.52
2018-06-27T20:40:36.408Z,99079.84
2018-06-27T20:43:05.500Z,99083.16
2018-06-27T20:45:34.253Z,99087.39
2018-06-27T20:48:03.019Z,99085.77
2018-06-27T20:50:31.695Z,99084.67
2018-06-27T20:53:01.406Z,99084.80
2018-06-27T20:55:30.239Z,99084.12
2018-06-27T20:57:59.397Z,99089.75
2018-06-27T21:00:28.537Z,99088.45
2018-06-27T21:02:57.318Z,99082.98
2018-06-27T21:05:26.358Z,99085.53
2018-06-27T21:07:55.060Z,99089.02
2018-06-27T21:10:23.716Z,99093.95
2018-06-27T21:12:52.526Z,99099.79
2018-06-27T21:15:21.186Z,99101.78
2018-06-27T21:17:49.821Z,99101.89
2018-06-27T21:20:18.782Z,99097.38
2018-06-27T21:22:47.478Z,99100.56
2018-06-27T21:25:16.110Z,99100.76
2018-06-27T21:27:44.777Z,99102.42
2018-06-27T21:30:13.397Z,99099.05
2018-06-27T21:32:42.010Z,99103.36
2018-06-27T21:35:10.777Z,99098.95
2018-06-27T21:37:39.382Z,99100.27
2018-06-27T21:40:07.990Z,99106.02
2018-06-27T21:42:36.635Z,99105.80
2018-06-27T21:45:05.392Z,99109.70
2018-06-27T21:47:34.023Z,99109.06
2018-06-27T21:50:02.796Z,99101.39
2018-06-27T21:52:32.329Z,99101.71
2018-06-27T21:55:00.915Z,99106.36
2018-06-27T21:57:29.516Z,99103.91
2018-06-27T21:59:58.117Z,99104.62
2018-06-27T22:02:26.926Z,99108.32
2018-06-27T22:04:55.530Z,99107.44
2018-06-27T22:07:24.237Z,99111.59
2018-06-27T22:09:52.845Z,99112.73
2018-06-27T22:12:21.508Z,99111.42
2018-06-27T22:14:50.276Z,99115.92
2018-06-27T22:17:18.885Z,99115.15
2018-06-27T22:19:47.517Z,99120.05
2018-06-27T22:22:16.078Z,99125.23
2018-06-27T22:24:44.735Z,99129.33
2018-06-27T22:27:13.364Z,99125.06
2018-06-27T22:29:41.971Z,99125.38
2018-06-27T22:32:10.554Z,99123.11
2018-06-27T22:34:39.221Z,99126.88
2018-06-27T22:37:07.877Z,99122.04
2018-06-27T22:39:36.514Z,99123.39
2018-06-27T22:42:05.179Z,99135.70
2018-06-27T22:44:33.745Z,99123.50
2018-06-27T22:47:02.525Z,99130.80
2018-06-27T22:49:31.481Z,99127.59
2018-06-27T22:52:00.149Z,99122.08
2018-06-27T22:54:28.729Z,99126.24
2018-06-27T22:56:57.451Z,99121.36
2018-06-27T22:59:26.097Z,99122.94
2018-06-27T23:01:54.742Z,99126.88
2018-06-27T23:04:23.677Z,99128.09
2018-06-27T23:06:55.378Z,99118.52
2018-06-27T23:09:24.208Z,99118.80
2018-06-27T23:11:52.886Z,99118.98
2018-06-27T23:14:21.497Z,99121.05
2018-06-27T23:16:50.130Z,99123.47
2018-06-27T23:19:18.745Z,99127.31
2018-06-27T23:21:47.389Z,99127.86
2018-06-27T23:24:16.273Z,99130.55
2018-06-27T23:26:44.833Z,99123.48
2018-06-27T23:29:13.501Z,99121.00
2018-06-27T23:31:42.090Z,99129.14
2018-06-27T23:34:10.709Z,99130.94
2018-06-27T23:36:39.377Z,99127.96
2018-06-27T23:39:11.046Z,99130.66
2018-06-27T23:41:39.765Z,99122.36
2018-06-27T23:44:08.421Z,99119.77
2018-06-27T23:46:37.522Z,99126.05
2018-06-27T23:49:06.538Z,99119.36
2018-06-27T23:51:35.205Z,99114.56
2018-06-27T23:54:03.904Z,99117.21
2018-06-27T23:56:32.597Z,99115.20
2018-06-27T23:59:07.952Z,99113.39
